createdAt,value
2023-03-12T00:01:21.891Z,80.59
2023-03-12T00:03:25.252Z,80.33
2023-03-12T00:05:27.966Z,80.75
2023-03-12T00:07:30.406Z,80.82
2023-03-12T00:09:36.008Z,79.90
2023-03-12T00:11:38.367Z,80.22
2023-03-12T00:13:40.967Z,80.11
2023-03-12T00:15:43.397Z,80.28
2023-03-12T00:17:45.725Z,80.15
2023-03-12T00:19:52.966Z,79.77
2023-03-12T00:21:55.486Z,80.26
2023-03-12T00:23:58.253Z,80.47
2023-03-12T00:26:03.012Z,80.36
2023-03-12T00:28:05.650Z,80.53
2023-03-12T00:30:09.245Z,80.94
2023-03-12T00:32:11.658Z,81.27
2023-03-12T00:34:14.339Z,81.01
2023-03-12T00:36:18.179Z,81.14
2023-03-12T00:38:20.482Z,80.63
2023-03-12T00:40:22.791Z,80.60
2023-03-12T00:42:25.087Z,80.85
2023-03-12T00:44:28.000Z,80.67
2023-03-12T00:46:30.466Z,80.25
2023-03-12T00:48:32.881Z,79.91
2023-03-12T00:50:35.491Z,80.21
2023-03-12T00:52:37.925Z,80.11
2023-03-12T00:54:40.648Z,81.11
2023-03-12T00:56:43.044Z,80.55
2023-03-12T00:58:46.694Z,80.76
2023-03-12T01:00:49.232Z,81.14
2023-03-12T01:02:51.559Z,81.65
2023-03-12T01:04:53.930Z,82.00
2023-03-12T01:06:56.642Z,82.60
2023-03-12T01:08:59.051Z,82.16
2023-03-12T01:11:03.527Z,83.13
2023-03-12T01:13:05.885Z,82.72
2023-03-12T01:15:09.298Z,83.05
2023-03-12T01:17:11.573Z,83.04
2023-03-12T01:19:13.865Z,82.60
2023-03-12T01:21:16.332Z,83.14
2023-03-12T01:23:19.013Z,82.85
2023-03-12T01:25:23.087Z,83.09
2023-03-12T01:27:25.646Z,83.20
2023-03-12T01:29:28.173Z,84.00
2023-03-12T01:31:30.555Z,83.93
2023-03-12T01:33:33.103Z,84.03
2023-03-12T01:35:39.818Z,83.45
2023-03-12T01:37:42.242Z,83.01
2023-03-12T01:39:44.648Z,83.15
2023-03-12T01:41:47.049Z,82.49
2023-03-12T01:43:49.611Z,82.64
2023-03-12T01:45:58.214Z,82.09
2023-03-12T01:48:00.647Z,82.44
2023-03-12T01:50:04.844Z,82.08
2023-03-12T01:52:09.543Z,81.85
2023-03-12T01:54:20.925Z,82.08
2023-03-12T01:56:27.361Z,81.69
2023-03-12T01:58:34.249Z,81.78
2023-03-12T02:00:36.655Z,81.18
2023-03-12T02:02:40.645Z,80.82
2023-03-12T02:04:45.445Z,80.66
2023-03-12T02:06:57.479Z,81.21
2023-03-12T02:09:02.279Z,81.10
2023-03-12T02:11:04.886Z,80.90
2023-03-12T02:13:08.124Z,81.16
2023-03-12T02:15:12.140Z,81.08
2023-03-12T02:17:14.840Z,80.79
2023-03-12T02:19:27.482Z,81.27
2023-03-12T02:21:34.088Z,80.59
2023-03-12T02:23:46.176Z,80.63
2023-03-12T02:25:52.171Z,80.60
2023-03-12T02:27:56.846Z,80.47
2023-03-12T02:30:00.250Z,80.97
2023-03-12T02:32:05.158Z,81.00
2023-03-12T02:34:07.641Z,80.99
2023-03-12T02:36:10.394Z,81.35
2023-03-12T02:38:19.045Z,81.20
2023-03-12T02:40:29.726Z,80.89
2023-03-12T02:42:32.601Z,81.38
2023-03-12T02:44:36.969Z,80.82
2023-03-12T02:46:44.167Z,81.10
2023-03-12T02:48:46.683Z,81.53
2023-03-12T02:50:49.126Z,81.05
2023-03-12T02:52:51.482Z,81.27
2023-03-12T02:54:54.079Z,81.45
2023-03-12T02:56:57.457Z,81.77
2023-03-12T02:59:02.579Z,80.81
2023-03-12T03:01:06.584Z,81.43
2023-03-12T03:03:09.243Z,81.97
2023-03-12T03:05:12.815Z,81.92
2023-03-12T03:07:15.322Z,81.86
2023-03-12T03:09:18.089Z,82.38
2023-03-12T03:11:24.602Z,81.83
2023-03-12T03:13:27.045Z,81.31
2023-03-12T03:15:30.114Z,81.97
2023-03-12T03:17:32.640Z,81.57
2023-03-12T03:19:35.056Z,81.62
2023-03-12T03:21:37.976Z,81.49
2023-03-12T03:23:40.413Z,81.75
2023-03-12T03:25:43.047Z,80.72
2023-03-12T03:27:45.486Z,80.90
2023-03-12T03:31:50.401Z,81.08
2023-03-12T03:33:52.812Z,81.08
2023-03-12T03:35:56.678Z,80.70
2023-03-12T03:37:59.206Z,80.57
2023-03-12T03:40:01.609Z,80.07
2023-03-12T03:42:04.020Z,80.25
2023-03-12T03:44:08.286Z,79.71
2023-03-12T03:46:12.326Z,79.07
2023-03-12T03:48:15.362Z,79.74
2023-03-12T03:50:17.926Z,79.67
2023-03-12T03:52:20.324Z,79.61
2023-03-12T03:54:22.601Z,79.63
2023-03-12T03:56:25.122Z,79.64
2023-03-12T03:58:27.561Z,79.17
2023-03-12T04:00:29.889Z,79.46
2023-03-12T04:02:32.341Z,79.29
2023-03-12T04:04:34.730Z,79.92
2023-03-12T04:06:37.411Z,79.67
2023-03-12T04:08:40.642Z,80.13
2023-03-12T04:10:43.133Z,79.98
2023-03-12T04:12:45.447Z,79.62
2023-03-12T04:14:47.720Z,79.74
2023-03-12T04:16:50.177Z,79.97
2023-03-12T04:18:52.519Z,80.60
2023-03-12T04:20:55.467Z,79.84
2023-03-12T04:22:59.009Z,79.56
2023-03-12T04:25:01.923Z,79.66
2023-03-12T04:27:04.641Z,80.10
2023-03-12T04:29:07.689Z,79.78
2023-03-12T04:31:12.842Z,80.20
2023-03-12T04:33:15.254Z,79.77
2023-03-12T04:35:17.735Z,80.10
2023-03-12T04:37:20.039Z,79.34
2023-03-12T04:39:22.375Z,79.50
2023-03-12T04:41:25.081Z,79.02
2023-03-12T04:43:29.285Z,79.00
2023-03-12T04:45:31.725Z,79.12
2023-03-12T04:47:34.648Z,78.81
2023-03-12T04:49:39.852Z,79.30
2023-03-12T04:51:42.335Z,79.70
2023-03-12T04:53:44.783Z,79.59
2023-03-12T04:55:47.320Z,79.17
2023-03-12T04:57:49.930Z,79.14
2023-03-12T04:59:52.687Z,79.42
2023-03-12T05:01:55.213Z,78.94
2023-03-12T05:03:57.789Z,79.06
2023-03-12T05:06:00.352Z,79.60
2023-03-12T05:08:04.109Z,79.79
2023-03-12T05:10:07.649Z,79.76
2023-03-12T05:12:11.343Z,79.64
2023-03-12T05:14:13.776Z,79.87
2023-03-12T05:16:16.842Z,79.37
2023-03-12T05:18:20.890Z,79.54
2023-03-12T05:20:23.330Z,79.67
2023-03-12T05:22:25.648Z,79.08
2023-03-12T05:24:29.568Z,79.10
2023-03-12T05:26:33.621Z,78.84
2023-03-12T05:28:36.135Z,79.46
2023-03-12T05:30:40.256Z,79.23
2023-03-12T05:32:42.789Z,79.64
2023-03-12T05:34:45.295Z,79.24
2023-03-12T05:36:47.681Z,79.27
2023-03-12T05:38:49.969Z,78.61
2023-03-12T05:40:55.698Z,78.99
2023-03-12T05:42:58.185Z,78.81
2023-03-12T05:45:00.941Z,78.66
2023-03-12T05:47:03.385Z,78.92
2023-03-12T05:49:05.734Z,78.75
2023-03-12T05:51:08.465Z,78.29
2023-03-12T05:53:11.500Z,77.91
2023-03-12T05:55:14.245Z,77.60
2023-03-12T05:57:16.581Z,77.53
2023-03-12T05:59:19.052Z,77.74
2023-03-12T06:01:25.606Z,77.14
2023-03-12T06:03:28.288Z,77.24
2023-03-12T06:05:31.722Z,77.65
2023-03-12T06:07:34.129Z,77.14
2023-03-12T06:09:36.807Z,77.37
2023-03-12T06:11:39.380Z,76.55
2023-03-12T06:13:42.249Z,76.97
2023-03-12T06:15:45.288Z,76.15
2023-03-12T06:17:47.737Z,76.22
2023-03-12T06:19:53.163Z,76.06
2023-03-12T06:21:55.560Z,76.42
2023-03-12T06:23:58.561Z,76.32
2023-03-12T06:26:00.928Z,76.06
2023-03-12T06:28:03.362Z,76.20
2023-03-12T06:30:06.608Z,76.55
2023-03-12T06:32:09.444Z,76.00
2023-03-12T06:34:11.801Z,76.09
2023-03-12T06:36:15.841Z,76.70
2023-03-12T06:38:18.280Z,76.00
2023-03-12T06:40:20.890Z,75.83
2023-03-12T06:42:23.246Z,75.55
2023-03-12T06:44:25.929Z,75.93
2023-03-12T06:46:28.385Z,75.98
2023-03-12T06:48:34.441Z,75.92
2023-03-12T06:50:36.841Z,76.06
2023-03-12T06:52:40.856Z,75.88
2023-03-12T06:54:43.358Z,75.52
2023-03-12T06:56:46.382Z,75.23
2023-03-12T06:58:49.440Z,74.93
2023-03-12T07:00:53.289Z,74.93
2023-03-12T07:02:55.642Z,75.33
2023-03-12T07:04:58.355Z,75.51
2023-03-12T07:07:00.809Z,75.52
2023-03-12T07:09:03.476Z,75.68
2023-03-12T07:11:05.781Z,75.59
2023-03-12T07:13:08.376Z,75.65
2023-03-12T07:15:11.497Z,75.61
2023-03-12T07:17:13.967Z,75.54
2023-03-12T07:19:16.575Z,75.38
2023-03-12T07:21:23.056Z,74.97
2023-03-12T07:23:25.455Z,74.89
2023-03-12T07:25:27.818Z,74.64
2023-03-12T07:27:30.411Z,74.49
2023-03-12T07:29:32.653Z,74.46
2023-03-12T07:31:35.122Z,74.67
2023-03-12T07:33:37.942Z,74.61
2023-03-12T07:35:40.810Z,74.00
2023-03-12T07:37:43.218Z,74.32
2023-03-12T07:39:45.664Z,74.20
2023-03-12T07:41:48.299Z,73.74
2023-03-12T07:43:50.771Z,74.53
2023-03-12T07:45:53.409Z,73.64
2023-03-12T07:47:55.927Z,74.27
2023-03-12T07:49:58.668Z,74.03
2023-03-12T07:52:01.301Z,73.99
2023-03-12T07:54:03.649Z,74.34
2023-03-12T07:56:06.729Z,74.05
2023-03-12T07:58:09.379Z,73.32
2023-03-12T08:00:12.927Z,73.46
2023-03-12T08:02:15.592Z,74.30
2023-03-12T08:04:18.114Z,74.25
2023-03-12T08:06:21.470Z,73.99
2023-03-12T08:08:23.790Z,74.15
2023-03-12T08:10:26.518Z,74.15
2023-03-12T08:12:29.174Z,74.52
2023-03-12T08:14:32.490Z,74.38
2023-03-12T08:16:35.063Z,73.92
2023-03-12T08:18:37.936Z,73.85
2023-03-12T08:20:40.402Z,74.21
2023-03-12T08:22:42.592Z,73.34
2023-03-12T08:24:44.767Z,73.32
2023-03-12T08:26:47.164Z,74.00
2023-03-12T08:28:49.297Z,73.21
2023-03-12T08:30:54.111Z,73.39
2023-03-12T08:32:56.368Z,74.24
2023-03-12T08:34:58.776Z,73.53
2023-03-12T08:37:01.681Z,73.89
2023-03-12T08:39:04.863Z,73.28
2023-03-12T08:41:07.225Z,73.78
2023-03-12T08:43:09.579Z,74.12
2023-03-12T08:45:13.068Z,74.35
2023-03-12T08:47:15.319Z,73.41
2023-03-12T08:49:18.124Z,72.79
2023-03-12T08:51:20.358Z,72.81
2023-03-12T08:53:22.940Z,72.95
2023-03-12T08:55:26.469Z,73.12
2023-03-12T08:57:29.388Z,73.24
2023-03-12T08:59:31.568Z,72.93
2023-03-12T09:01:33.940Z,73.00
2023-03-12T09:03:36.182Z,72.60
2023-03-12T09:05:38.444Z,72.08
2023-03-12T09:07:41.593Z,72.31
2023-03-12T09:09:43.791Z,71.58
2023-03-12T09:11:45.995Z,70.66
2023-03-12T09:14:16.855Z,71.20
2023-03-12T09:16:10.359Z,71.42
2023-03-12T09:18:12.677Z,71.17
2023-03-12T09:20:15.088Z,70.95
2023-03-12T09:22:17.647Z,71.39
2023-03-12T09:24:20.505Z,70.90
2023-03-12T09:26:22.747Z,71.09
2023-03-12T09:28:25.002Z,70.56
2023-03-12T09:30:30.377Z,70.18
2023-03-12T09:32:32.838Z,70.62
2023-03-12T09:34:36.045Z,70.36
2023-03-12T09:36:38.393Z,69.43
2023-03-12T09:38:40.750Z,68.74
2023-03-12T09:40:47.895Z,69.54
2023-03-12T09:42:52.765Z,68.49
2023-03-12T09:44:57.830Z,68.44
2023-03-12T09:47:08.518Z,68.37
2023-03-12T09:49:20.031Z,67.89
2023-03-12T09:51:28.454Z,68.57
2023-03-12T09:53:37.954Z,68.48
2023-03-12T09:55:43.749Z,68.50
2023-03-12T09:57:47.557Z,68.06
2023-03-12T09:59:51.280Z,67.91
2023-03-12T10:01:58.804Z,67.98
2023-03-12T10:04:07.228Z,67.91
2023-03-12T10:06:10.514Z,68.34
2023-03-12T10:08:25.186Z,68.00
2023-03-12T10:10:36.913Z,67.66
2023-03-12T10:12:48.109Z,67.61
2023-03-12T10:15:00.561Z,67.45
2023-03-12T10:17:09.149Z,67.65
2023-03-12T10:19:28.417Z,66.92
2023-03-12T10:21:31.315Z,66.98
2023-03-12T10:23:39.815Z,66.98
2023-03-12T10:25:48.898Z,67.32
2023-03-12T10:27:51.229Z,66.83
2023-03-12T10:29:55.259Z,66.84
2023-03-12T10:32:03.065Z,66.18
2023-03-12T10:34:17.687Z,65.95
2023-03-12T10:36:25.449Z,65.60
2023-03-12T10:38:30.325Z,65.00
2023-03-12T10:40:35.043Z,65.41
2023-03-12T10:42:37.479Z,65.58
2023-03-12T10:44:40.529Z,65.43
2023-03-12T10:46:51.813Z,65.36
2023-03-12T10:49:17.055Z,65.48
2023-03-12T10:51:19.368Z,65.76
2023-03-12T10:53:22.802Z,65.48
2023-03-12T10:55:29.656Z,65.62
2023-03-12T10:57:41.044Z,65.72
2023-03-12T10:59:46.349Z,65.99
2023-03-12T11:01:52.084Z,65.72
2023-03-12T11:04:10.897Z,65.49
2023-03-12T11:06:19.409Z,65.47
2023-03-12T11:08:27.300Z,65.39
2023-03-12T11:10:33.990Z,65.27
2023-03-12T11:12:40.038Z,64.89
2023-03-12T11:14:47.232Z,64.64
2023-03-12T11:16:51.232Z,65.12
2023-03-12T11:18:57.760Z,65.12
2023-03-12T11:21:06.298Z,64.60
2023-03-12T11:23:15.659Z,64.76
2023-03-12T11:25:24.134Z,64.26
2023-03-12T11:27:35.103Z,64.18
2023-03-12T11:29:43.778Z,64.03
2023-03-12T11:31:54.354Z,63.98
2023-03-12T11:34:03.404Z,64.17
2023-03-12T11:36:20.929Z,63.95
2023-03-12T11:38:31.568Z,64.36
2023-03-12T11:40:36.869Z,63.90
2023-03-12T11:42:42.668Z,63.68
2023-03-12T11:44:46.873Z,63.73
2023-03-12T11:46:53.586Z,63.43
2023-03-12T11:48:59.300Z,63.29
2023-03-12T11:51:14.109Z,63.21
2023-03-12T11:53:20.928Z,63.39
2023-03-12T11:55:27.636Z,63.58
2023-03-12T11:57:33.231Z,63.51
2023-03-12T11:59:43.860Z,63.44
2023-03-12T12:01:52.316Z,63.35
2023-03-12T12:03:59.117Z,63.67
2023-03-12T12:06:06.721Z,63.83
2023-03-12T12:08:13.367Z,63.78
2023-03-12T12:10:21.788Z,63.28
2023-03-12T12:12:28.544Z,63.21
2023-03-12T12:14:33.597Z,62.93
2023-03-12T12:16:46.456Z,63.07
2023-03-12T12:18:52.073Z,63.09
2023-03-12T12:20:57.724Z,63.32
2023-03-12T12:23:01.818Z,63.27
2023-03-12T12:25:09.059Z,63.11
2023-03-12T12:27:17.505Z,63.59
2023-03-12T12:29:26.511Z,62.71
2023-03-12T12:31:32.258Z,63.44
2023-03-12T12:33:40.600Z,63.21
2023-03-12T12:35:43.999Z,62.46
2023-03-12T12:37:52.158Z,62.19
2023-03-12T12:40:08.933Z,62.04
2023-03-12T12:42:18.564Z,62.00
2023-03-12T12:44:28.242Z,61.71
2023-03-12T12:46:34.788Z,61.50
2023-03-12T12:48:40.695Z,61.34
2023-03-12T12:50:44.510Z,61.12
2023-03-12T12:52:53.835Z,60.72
2023-03-12T12:55:03.815Z,60.54
2023-03-12T12:57:13.966Z,60.43
2023-03-12T12:59:21.645Z,60.29
2023-03-12T13:01:27.225Z,59.73
2023-03-12T13:03:31.077Z,59.65
2023-03-12T13:05:46.262Z,59.78
2023-03-12T13:07:48.626Z,59.73
2023-03-12T13:09:53.715Z,59.74
2023-03-12T13:11:56.270Z,59.73
2023-03-12T13:14:02.942Z,59.22
2023-03-12T13:16:11.634Z,59.27
2023-03-12T13:18:20.160Z,59.60
2023-03-12T13:20:28.548Z,58.02
2023-03-12T13:22:31.443Z,57.26
2023-03-12T13:24:41.815Z,57.61
2023-03-12T13:26:50.336Z,56.68
2023-03-12T13:29:06.173Z,56.50
2023-03-12T13:31:15.686Z,57.26
2023-03-12T13:33:21.969Z,57.77
2023-03-12T13:35:24.965Z,58.00
2023-03-12T13:37:48.071Z,57.89
2023-03-12T13:39:51.505Z,58.18
2023-03-12T13:41:57.464Z,58.34
2023-03-12T13:44:00.529Z,58.62
2023-03-12T13:46:10.642Z,59.33
2023-03-12T13:48:18.532Z,58.65
2023-03-12T13:50:20.995Z,58.77
2023-03-12T13:52:25.349Z,59.22
2023-03-12T13:54:34.619Z,59.70
2023-03-12T13:56:37.504Z,59.56
2023-03-12T13:58:47.540Z,59.84
2023-03-12T14:00:56.179Z,59.73
2023-03-12T14:03:03.921Z,59.12
2023-03-12T14:05:11.624Z,59.22
2023-03-12T14:07:18.404Z,58.67
2023-03-12T14:09:31.855Z,58.78
2023-03-12T14:11:44.294Z,58.51
2023-03-12T14:13:51.122Z,58.54
2023-03-12T14:16:01.379Z,58.48
2023-03-12T14:18:14.533Z,58.92
2023-03-12T14:20:21.817Z,58.80
2023-03-12T14:22:25.481Z,58.61
2023-03-12T14:24:36.254Z,58.32
2023-03-12T14:26:39.189Z,58.29
2023-03-12T14:28:42.478Z,57.34
2023-03-12T14:30:50.366Z,57.03
2023-03-12T14:32:56.768Z,56.48
2023-03-12T14:35:05.304Z,56.32
2023-03-12T14:37:16.695Z,56.37
2023-03-12T14:39:22.398Z,56.18
2023-03-12T14:41:32.166Z,55.63
2023-03-12T14:43:35.878Z,55.87
2023-03-12T14:45:41.320Z,55.77
2023-03-12T14:47:45.726Z,55.79
2023-03-12T14:49:48.036Z,56.59
2023-03-12T14:51:50.444Z,57.78
2023-03-12T14:53:53.658Z,58.52
2023-03-12T14:56:02.292Z,58.55
2023-03-12T14:58:07.309Z,58.91
2023-03-12T15:00:24.873Z,59.11
2023-03-12T15:02:30.609Z,58.69
2023-03-12T15:04:38.302Z,58.56
2023-03-12T15:06:46.553Z,58.64
2023-03-12T15:08:49.354Z,58.90
2023-03-12T15:10:56.122Z,59.86
2023-03-12T15:13:01.047Z,60.04
2023-03-12T15:15:09.955Z,60.32
2023-03-12T15:17:18.121Z,60.17
2023-03-12T15:19:27.050Z,61.09
2023-03-12T15:21:29.326Z,61.42
2023-03-12T15:23:35.424Z,61.80
2023-03-12T15:25:38.908Z,61.80
2023-03-12T15:27:41.090Z,62.68
2023-03-12T15:29:43.453Z,62.45
2023-03-12T15:31:48.452Z,62.20
2023-03-12T15:33:57.418Z,61.99
2023-03-12T15:36:04.874Z,62.35
2023-03-12T15:38:15.242Z,62.62
2023-03-12T15:40:22.541Z,63.08
2023-03-12T15:42:27.355Z,63.60
2023-03-12T15:44:44.676Z,63.50
2023-03-12T15:46:49.782Z,63.30
2023-03-12T15:48:55.395Z,63.83
2023-03-12T15:50:58.525Z,64.02
2023-03-12T15:53:06.473Z,64.48
2023-03-12T15:55:13.253Z,64.66
2023-03-12T15:57:20.865Z,64.69
2023-03-12T15:59:27.106Z,64.62
2023-03-12T16:01:29.599Z,64.90
2023-03-12T16:03:31.899Z,65.57
2023-03-12T16:05:37.725Z,65.66
2023-03-12T16:07:40.133Z,65.71
2023-03-12T16:09:42.604Z,65.98
2023-03-12T16:11:45.029Z,65.87
2023-03-12T16:13:50.165Z,66.16
2023-03-12T16:15:52.772Z,66.43
2023-03-12T16:17:54.970Z,67.30
2023-03-12T16:19:57.323Z,67.31
2023-03-12T16:22:00.540Z,67.51
2023-03-12T16:24:03.239Z,67.35
2023-03-12T16:26:07.483Z,67.46
2023-03-12T16:28:14.912Z,67.79
2023-03-12T16:30:23.078Z,67.59
2023-03-12T16:32:25.340Z,68.59
2023-03-12T16:34:28.489Z,69.12
2023-03-12T16:36:30.762Z,69.42
2023-03-12T16:38:33.156Z,69.39
2023-03-12T16:40:38.669Z,69.32
2023-03-12T16:42:44.991Z,69.32
2023-03-12T16:44:47.705Z,69.07
2023-03-12T16:46:49.954Z,69.06
2023-03-12T16:48:54.122Z,69.74
2023-03-12T16:50:58.929Z,69.30
2023-03-12T16:53:04.546Z,70.81
2023-03-12T16:55:07.579Z,69.83
2023-03-12T16:57:18.789Z,70.46
2023-03-12T16:59:26.288Z,70.49
2023-03-12T17:01:29.498Z,70.14
2023-03-12T17:03:37.424Z,70.67
2023-03-12T17:05:41.064Z,70.51
2023-03-12T17:07:43.252Z,70.15
2023-03-12T17:09:45.492Z,70.43
2023-03-12T17:11:50.748Z,71.02
2023-03-12T17:13:58.701Z,71.36
2023-03-12T17:16:01.238Z,71.23
2023-03-12T17:18:04.704Z,71.35
2023-03-12T17:20:10.612Z,71.70
2023-03-12T17:22:13.109Z,71.60
2023-03-12T17:24:15.720Z,71.33
2023-03-12T17:26:18.824Z,71.88
2023-03-12T17:28:21.095Z,71.66
2023-03-12T17:30:24.653Z,71.93
2023-03-12T17:32:26.970Z,71.81
2023-03-12T17:34:30.307Z,71.94
2023-03-12T17:36:32.774Z,72.58
2023-03-12T17:38:35.278Z,71.90
2023-03-12T17:40:41.617Z,72.43
2023-03-12T17:42:44.019Z,73.51
2023-03-12T17:44:46.556Z,72.98
2023-03-12T17:46:58.781Z,73.55
2023-03-12T17:49:01.796Z,74.14
2023-03-12T17:51:08.213Z,73.83
2023-03-12T17:53:10.770Z,74.12
2023-03-12T17:55:13.197Z,73.84
2023-03-12T17:57:15.357Z,74.54
2023-03-12T17:59:18.430Z,75.04
2023-03-12T18:01:20.768Z,75.17
2023-03-12T18:03:23.175Z,76.43
2023-03-12T18:05:25.820Z,77.05
2023-03-12T18:07:28.160Z,77.65
2023-03-12T18:09:30.592Z,77.34
2023-03-12T18:11:32.818Z,78.00
2023-03-12T18:13:35.315Z,77.94
2023-03-12T18:15:37.789Z,78.33
2023-03-12T18:17:40.893Z,77.84
2023-03-12T18:19:43.177Z,78.20
2023-03-12T18:21:45.522Z,77.92
2023-03-12T18:23:47.911Z,78.13
2023-03-12T18:25:50.130Z,78.55
2023-03-12T18:27:53.677Z,78.07
2023-03-12T18:29:56.667Z,78.41
2023-03-12T18:31:58.964Z,78.80
2023-03-12T18:34:01.163Z,78.74
2023-03-12T18:36:04.188Z,78.70
2023-03-12T18:38:06.452Z,79.24
2023-03-12T18:40:10.324Z,79.36
2023-03-12T18:42:12.536Z,79.45
2023-03-12T18:44:14.712Z,79.17
2023-03-12T18:46:17.311Z,79.16
2023-03-12T18:48:19.499Z,79.54
2023-03-12T18:50:21.970Z,79.25
2023-03-12T18:52:24.259Z,80.36
2023-03-12T18:54:27.569Z,79.79
2023-03-12T18:56:30.126Z,80.55
2023-03-12T18:58:32.490Z,81.33
2023-03-12T19:00:34.792Z,82.00
2023-03-12T19:02:38.166Z,81.55
2023-03-12T19:04:45.324Z,81.76
2023-03-12T19:06:51.455Z,82.22
2023-03-12T19:08:54.256Z,81.89
2023-03-12T19:10:56.727Z,82.17
2023-03-12T19:12:59.257Z,82.15
2023-03-12T19:15:01.743Z,82.12
2023-03-12T19:17:04.412Z,81.63
2023-03-12T19:19:06.717Z,81.44
2023-03-12T19:21:09.113Z,82.17
2023-03-12T19:23:11.320Z,81.86
2023-03-12T19:25:14.189Z,82.39
2023-03-12T19:27:16.429Z,83.07
2023-03-12T19:29:18.715Z,82.95
2023-03-12T19:31:21.103Z,82.06
2023-03-12T19:33:23.684Z,82.73
2023-03-12T19:35:26.010Z,82.87
2023-03-12T19:37:28.892Z,82.94
2023-03-12T19:39:31.081Z,83.71
2023-03-12T19:41:33.478Z,83.27
2023-03-12T19:43:36.762Z,83.37
2023-03-12T19:45:39.113Z,83.40
2023-03-12T19:47:41.799Z,82.88
2023-03-12T19:49:44.328Z,83.62
2023-03-12T19:51:46.556Z,83.15
2023-03-12T19:53:48.850Z,83.33
2023-03-12T19:55:51.357Z,83.42
2023-03-12T19:57:54.467Z,83.68
2023-03-12T19:59:56.873Z,83.98
2023-03-12T20:02:01.840Z,83.54
2023-03-12T20:04:08.158Z,84.69
2023-03-12T20:06:11.556Z,84.90
2023-03-12T20:08:14.178Z,84.70
2023-03-12T20:10:16.688Z,84.29
2023-03-12T20:12:19.068Z,84.38
2023-03-12T20:14:21.503Z,84.79
2023-03-12T20:16:23.936Z,84.69
2023-03-12T20:18:26.141Z,86.06
2023-03-12T20:20:28.334Z,86.37
2023-03-12T20:22:31.387Z,86.12
2023-03-12T20:24:33.613Z,86.50
2023-03-12T20:26:39.638Z,86.21
2023-03-12T20:28:42.364Z,86.02
2023-03-12T20:30:44.628Z,85.78
2023-03-12T20:32:46.922Z,86.07
2023-03-12T20:34:49.320Z,85.83
2023-03-12T20:36:51.610Z,86.28
2023-03-12T20:38:53.879Z,86.84
2023-03-12T20:40:56.073Z,86.53
2023-03-12T20:42:58.428Z,86.20
2023-03-12T20:45:00.985Z,86.75
2023-03-12T20:47:03.253Z,86.56
2023-03-12T20:49:05.495Z,86.66
2023-03-12T20:51:07.895Z,86.10
2023-03-12T20:53:10.387Z,86.59
2023-03-12T20:55:12.672Z,87.24
2023-03-12T20:57:14.970Z,86.77
2023-03-12T20:59:17.333Z,86.43
2023-03-12T21:01:19.995Z,85.55
2023-03-12T21:03:23.100Z,85.56
2023-03-12T21:05:27.241Z,85.35
2023-03-12T21:07:29.637Z,85.82
2023-03-12T21:09:32.094Z,85.87
2023-03-12T21:11:34.664Z,86.14
2023-03-12T21:13:37.086Z,85.79
2023-03-12T21:15:39.204Z,85.65
2023-03-12T21:17:41.594Z,85.37
2023-03-12T21:19:44.196Z,86.14
2023-03-12T21:21:46.435Z,85.81
2023-03-12T21:23:48.740Z,85.60
2023-03-12T21:25:59.437Z,85.64
2023-03-12T21:28:02.479Z,85.09
2023-03-12T21:30:05.700Z,84.98
2023-03-12T21:32:08.095Z,85.23
2023-03-12T21:34:10.318Z,85.50
2023-03-12T21:36:14.675Z,84.98
2023-03-12T21:38:17.011Z,85.24
2023-03-12T21:40:19.454Z,84.93
2023-03-12T21:42:21.641Z,85.37
2023-03-12T21:44:23.934Z,85.04
2023-03-12T21:46:27.959Z,85.34
2023-03-12T21:48:30.260Z,85.22
2023-03-12T21:50:32.434Z,84.79
2023-03-12T21:52:41.490Z,84.50
2023-03-12T21:54:45.791Z,84.44
2023-03-12T21:56:48.009Z,84.16
2023-03-12T21:58:50.285Z,84.50
2023-03-12T22:00:52.816Z,84.39
2023-03-12T22:02:55.106Z,85.67
2023-03-12T22:05:00.311Z,85.90
2023-03-12T22:07:02.739Z,85.60
2023-03-12T22:09:05.079Z,85.36
2023-03-12T22:11:08.560Z,85.09
2023-03-12T22:13:14.608Z,85.85
2023-03-12T22:15:19.347Z,86.16
2023-03-12T22:17:25.228Z,86.21
2023-03-12T22:19:33.189Z,86.64
2023-03-12T22:21:35.320Z,86.50
2023-03-12T22:23:37.881Z,86.85
2023-03-12T22:25:40.059Z,87.05
2023-03-12T22:27:42.309Z,87.09
2023-03-12T22:29:44.449Z,87.64
2023-03-12T22:31:46.659Z,86.78
2023-03-12T22:33:49.314Z,87.27
2023-03-12T22:35:51.582Z,87.39
2023-03-12T22:37:54.809Z,88.05
2023-03-12T22:40:01.713Z,87.59
2023-03-12T22:42:04.173Z,87.64
2023-03-12T22:44:09.484Z,87.61
2023-03-12T22:46:12.393Z,88.01
2023-03-12T22:48:14.622Z,87.43
2023-03-12T22:50:17.176Z,87.43
2023-03-12T22:52:19.412Z,87.08
2023-03-12T22:54:21.973Z,88.01
2023-03-12T22:56:25.142Z,87.93
2023-03-12T22:58:27.865Z,88.44
2023-03-12T23:00:30.124Z,87.73
2023-03-12T23:02:32.584Z,87.57
2023-03-12T23:04:34.943Z,87.21
2023-03-12T23:06:37.178Z,87.33
2023-03-12T23:08:39.744Z,87.77
2023-03-12T23:10:41.948Z,87.83
2023-03-12T23:12:44.184Z,87.05
2023-03-12T23:14:46.432Z,87.16
2023-03-12T23:16:48.856Z,86.82
2023-03-12T23:18:51.864Z,86.43
2023-03-12T23:20:57.941Z,86.14
2023-03-12T23:23:00.184Z,86.09
2023-03-12T23:25:02.606Z,85.84
2023-03-12T23:27:05.851Z,85.86
2023-03-12T23:29:09.118Z,85.70
2023-03-12T23:31:11.604Z,85.41
2023-03-12T23:33:13.904Z,85.24
2023-03-12T23:35:16.506Z,84.77
2023-03-12T23:37:18.973Z,85.02
2023-03-12T23:39:21.305Z,85.21
2023-03-12T23:41:27.422Z,85.38
2023-03-12T23:43:30.007Z,85.56
2023-03-12T23:45:32.294Z,84.84
2023-03-12T23:47:34.477Z,84.51
2023-03-12T23:49:36.665Z,84.32
2023-03-12T23:51:41.018Z,83.86
2023-03-12T23:53:45.277Z,83.77
2023-03-12T23:55:53.748Z,84.13
2023-03-12T23:57:55.906Z,83.70
2023-03-12T23:59:58.098Z,83.81
